.
WxDataArchive / Data Records for 2013-12-18
2013-12-17 December 2013 2013-12-19

Data Records for Wednesday, 18 December 2013

Time	Temp	Chill	HIndex	Humid	Dewpt	 Wind 	HiWind	WindDir	Rain 	Barom 
-----	----	-----	------	-----	-----	------	------	-------	-----	----- 
00:00	23.6	23.6	23.6	81	18.6	1	5	248	0.00	30.086 
00:05	23.6	23.6	23.6	81	18.6	1	2	248	0.00	30.086 
00:10	23.5	23.5	23.5	80	18.3	1	3	248	0.00	30.086 
00:15	23.5	23.5	23.5	80	18.3	1	3	248	0.00	30.085 
00:20	23.5	23.5	23.5	79	18.0	1	4	248	0.00	30.085 
00:25	23.5	23.5	23.5	79	18.0	1	4	248	0.00	30.085 
00:30	23.3	23.3	23.3	79	17.8	1	3	248	0.00	30.080 
00:35	23.2	23.2	23.2	78	17.4	0	4	248	0.00	30.080 
00:40	23.0	23.0	23.0	78	17.2	0	2	248	0.00	30.080 
00:45	22.9	22.9	22.9	78	17.1	0	2	248	0.00	30.085 
00:50	22.9	22.9	22.9	78	17.1	1	5	248	0.00	30.085 
00:55	22.7	22.7	22.7	78	16.9	0	2	248	0.00	30.085 
01:00	22.5	22.5	22.5	78	16.7	1	2	248	0.00	30.079 
01:05	22.5	22.5	22.5	78	16.7	1	3	248	0.00	30.079 
01:10	22.4	22.4	22.4	78	16.6	1	5	248	0.00	30.079 
01:15	22.2	22.2	22.2	78	16.4	0	2	248	0.00	30.075 
01:20	22.1	22.1	22.1	78	16.3	1	3	248	0.00	30.075 
01:25	22.1	22.1	22.1	78	16.3	1	2	248	0.00	30.075 
01:30	21.9	21.9	21.9	78	16.1	0	2	248	0.00	30.078 
01:35	21.8	21.8	21.8	78	16.0	1	3	248	0.00	30.078 
01:40	21.8	21.8	21.8	78	16.0	1	3	248	0.00	30.078 
01:45	21.6	21.6	21.6	78	15.8	1	3	248	0.00	30.076 
01:50	21.6	21.6	21.6	78	15.8	1	5	248	0.00	30.076 
01:55	21.4	21.4	21.4	78	15.6	1	4	248	0.00	30.076 
02:00	21.4	21.4	21.4	78	15.6	1	3	248	0.00	30.082 
02:05	21.1	21.1	21.1	78	15.3	1	2	248	0.00	30.082 
02:10	21.1	21.1	21.1	78	15.3	0	3	248	0.00	30.082 
02:15	21.0	21.0	21.0	78	15.2	1	3	248	0.00	30.089 
02:20	20.8	20.8	20.8	78	15.0	1	4	248	0.00	30.089 
02:25	20.8	20.8	20.8	78	15.0	0	2	248	0.00	30.089 
02:30	20.8	20.8	20.8	78	15.0	1	4	248	0.00	30.091 
02:35	20.6	20.6	20.6	78	14.8	0	3	248	0.00	30.091 
02:40	20.6	20.6	20.6	78	14.8	0	2	248	0.00	30.091 
02:45	20.5	20.5	20.5	79	15.0	1	2	248	0.00	30.095 
02:50	20.5	20.5	20.5	79	15.0	0	2	248	0.00	30.095 
02:55	20.3	20.3	20.3	79	14.8	0	2	248	0.00	30.095 
03:00	20.3	20.3	20.3	79	14.8	0	2	248	0.00	30.098 
03:05	20.2	20.2	20.2	80	15.0	0	2	248	0.00	30.098 
03:10	20.2	20.2	20.2	80	15.0	0	1	248	0.00	30.098 
03:15	20.0	20.0	20.0	80	14.8	0	1	248	0.00	30.106 
03:20	20.0	20.0	20.0	80	14.8	0	2	248	0.00	30.106 
03:25	19.9	19.9	19.9	80	14.7	0	1	248	0.00	30.106 
03:30	19.7	19.7	19.7	81	14.8	0	1	248	0.00	30.107 
03:35	19.7	19.7	19.7	81	14.8	0	1	248	0.00	30.107 
03:40	19.7	19.7	19.7	81	14.8	0	2	248	0.00	30.107 
03:45	19.7	19.7	19.7	82	15.1	1	2	248	0.00	30.114 
03:50	19.9	19.9	19.9	82	15.3	0	1	248	0.00	30.114 
03:55	19.9	19.9	19.9	82	15.3	0	2	248	0.00	30.114 
04:00	19.9	19.9	19.9	82	15.3	0	2	248	0.00	30.115 
04:05	19.9	19.9	19.9	82	15.3	0	2	248	0.00	30.115 
04:10	19.9	19.9	19.9	82	15.3	0	2	248	0.00	30.115 
04:15	19.9	19.9	19.9	82	15.3	0	3	248	0.00	30.120 
04:20	20.0	20.0	20.0	83	15.7	1	3	248	0.00	30.120 
04:25	20.0	20.0	20.0	83	15.7	1	3	248	0.00	30.120 
04:30	20.2	20.2	20.2	83	15.9	0	2	248	0.00	30.114 
04:35	20.2	20.2	20.2	83	15.9	0	2	248	0.00	30.114 
04:40	20.3	20.3	20.3	83	16.0	0	3	248	0.00	30.114 
04:45	20.6	20.6	20.6	84	16.5	0	2	248	0.00	30.116 
04:50	21.0	21.0	21.0	84	16.9	0	2	248	0.00	30.116 
04:55	21.1	21.1	21.1	84	17.0	1	3	248	0.00	30.116 
05:00	21.3	21.3	21.3	83	17.0	0	2	248	0.00	30.119 
05:05	21.4	21.4	21.4	83	17.1	0	1	248	0.00	30.119 
05:10	21.4	21.4	21.4	83	17.1	0	2	248	0.00	30.119 
05:15	21.3	21.3	21.3	82	16.7	0	2	248	0.00	30.123 
05:20	21.3	21.3	21.3	82	16.7	0	2	248	0.00	30.123 
05:25	21.3	21.3	21.3	82	16.7	0	2	248	0.00	30.123 
05:30	21.1	21.1	21.1	81	16.2	0	2	248	0.00	30.132 
05:35	21.1	21.1	21.1	81	16.2	0	2	248	0.00	30.132 
05:40	21.0	21.0	21.0	81	16.1	1	2	248	0.00	30.132 
05:45	20.8	20.8	20.8	80	15.6	0	2	248	0.00	30.134 
05:50	20.6	20.6	20.6	80	15.4	0	2	248	0.00	30.134 
05:55	20.3	20.3	20.3	80	15.1	0	2	248	0.00	30.134 
06:00	20.0	20.0	20.0	80	14.8	0	1	248	0.00	30.135 
06:05	19.7	19.7	19.7	80	14.6	0	1	248	0.00	30.135 
06:10	19.4	19.4	19.4	80	14.3	0	0	---	0.00	30.135 
06:15	19.1	19.1	19.1	80	14.0	0	1	248	0.00	30.138 
06:20	18.9	18.9	18.9	81	14.1	0	1	248	0.00	30.138 
06:25	18.8	18.8	18.8	81	14.0	0	0	---	0.00	30.138 
06:30	18.4	18.4	18.4	81	13.6	0	1	248	0.00	30.138 
06:35	18.3	18.3	18.3	82	13.7	0	0	---	0.00	30.138 
06:40	18.0	18.0	18.0	82	13.5	0	0	---	0.00	30.138 
06:45	17.7	17.7	17.7	82	13.2	0	0	---	0.00	30.133 
06:50	17.5	17.5	17.5	83	13.2	0	1	248	0.00	30.133 
06:55	17.5	17.5	17.5	83	13.2	0	1	248	0.00	30.133 
07:00	17.5	17.5	17.5	84	13.5	0	1	248	0.00	30.152 
07:05	17.5	17.5	17.5	84	13.5	0	1	248	0.00	30.152 
07:10	17.7	17.7	17.7	85	14.0	0	2	248	0.00	30.152 
07:15	17.7	17.7	17.7	85	14.0	0	2	248	0.00	30.163 
07:20	17.7	17.7	17.7	85	14.0	0	1	248	0.00	30.163 
07:25	17.7	17.7	17.7	85	14.0	0	3	248	0.00	30.163 
07:30	17.8	17.8	17.8	85	14.1	0	2	248	0.00	30.166 
07:35	18.0	18.0	18.0	85	14.3	0	2	248	0.00	30.166 
07:40	17.8	17.8	17.8	85	14.1	0	1	248	0.00	30.166 
07:45	17.8	17.8	17.8	85	14.1	0	3	248	0.00	30.172 
07:50	18.0	18.0	18.0	85	14.3	0	2	248	0.00	30.172 
07:55	18.0	18.0	18.0	84	14.0	0	1	248	0.00	30.172 
08:00	17.8	17.8	17.8	84	13.8	0	1	248	0.00	30.171 
08:05	17.7	17.7	17.7	84	13.7	0	1	248	0.00	30.171 
08:10	17.7	17.7	17.7	84	13.7	0	2	248	0.00	30.171 
08:15	17.7	17.7	17.7	83	13.4	0	1	248	0.00	30.172 
08:20	17.7	17.7	17.7	83	13.4	0	1	248	0.00	30.172 
08:25	17.7	17.7	17.7	83	13.4	0	1	248	0.00	30.172 
08:30	17.8	17.8	17.8	82	13.3	0	2	248	0.00	30.182 
08:35	17.8	17.8	17.8	82	13.3	0	2	248	0.00	30.182 
08:40	18.0	18.0	18.0	82	13.5	0	1	248	0.00	30.182 
08:45	18.1	18.1	18.1	81	13.3	0	1	248	0.00	30.180 
08:50	18.1	18.1	18.1	81	13.3	0	1	248	0.00	30.180 
08:55	18.4	18.4	18.4	81	13.6	0	2	248	0.00	30.180 
09:00	18.6	18.6	18.6	81	13.8	0	1	248	0.00	30.184 
09:05	18.9	18.9	18.9	80	13.8	0	3	248	0.00	30.184 
09:10	19.1	19.1	19.1	79	13.7	0	1	248	0.00	30.184 
09:15	19.2	19.2	19.2	79	13.8	0	1	248	0.00	30.184 
09:20	19.4	19.4	19.4	79	14.0	0	1	248	0.00	30.184 
09:25	19.5	19.5	19.5	79	14.1	0	1	248	0.00	30.184 
09:30	19.7	19.7	19.7	79	14.3	0	1	248	0.00	30.193 
09:35	20.0	20.0	20.0	79	14.6	0	1	248	0.00	30.193 
09:40	20.2	20.2	20.2	79	14.8	0	1	248	0.00	30.193 
09:45	20.5	20.5	20.5	79	15.0	0	2	248	0.00	30.190 
09:50	20.8	20.8	20.8	78	15.0	0	2	248	0.00	30.190 
09:55	21.0	21.0	21.0	78	15.2	1	3	248	0.00	30.190 
10:00	21.0	21.0	21.0	77	14.9	1	3	248	0.00	30.197 
10:05	21.1	21.1	21.1	76	14.7	0	2	248	0.00	30.197 
10:10	21.4	21.4	21.4	76	15.0	0	2	248	0.00	30.197 
10:15	21.6	21.6	21.6	75	14.9	1	4	248	0.00	30.211 
10:20	21.3	21.3	21.3	73	14.0	2	4	248	0.00	30.211 
10:25	21.1	21.1	21.1	73	13.8	1	3	248	0.00	30.211 
10:30	21.1	21.1	21.1	72	13.5	2	4	248	0.00	30.217 
10:35	21.1	21.1	21.1	72	13.5	1	3	248	0.00	30.217 
10:40	21.3	21.3	21.3	71	13.4	0	2	248	0.00	30.217 
10:45	21.3	21.3	21.3	70	13.1	1	2	248	0.00	30.215 
10:50	21.3	21.3	21.3	71	13.4	1	2	248	0.00	30.215 
10:55	21.4	21.4	21.4	71	13.5	1	2	248	0.00	30.215 
11:00	21.6	21.6	21.6	70	13.4	0	3	248	0.00	30.216 
11:05	21.6	21.6	21.6	69	13.0	1	3	248	0.00	30.216 
11:10	21.4	21.4	21.4	69	12.8	2	4	248	0.00	30.216 
11:15	21.4	21.4	21.4	69	12.8	2	3	248	0.00	30.220 
11:20	21.6	21.6	21.6	69	13.0	2	4	248	0.00	30.220 
11:25	21.6	21.6	21.6	68	12.7	2	5	248	0.00	30.220 
11:30	21.6	21.6	21.6	68	12.7	2	3	248	0.00	30.222 
11:35	21.6	21.6	21.6	68	12.7	2	4	248	0.00	30.222 
11:40	21.9	21.9	21.9	68	13.0	2	4	248	0.00	30.222 
11:45	21.9	21.9	21.9	68	13.0	2	4	248	0.00	30.228 
11:50	22.1	22.1	22.1	68	13.2	1	3	248	0.00	30.228 
11:55	22.4	22.4	22.4	68	13.5	2	3	248	0.00	30.228 
12:00	22.4	22.4	22.4	66	12.8	3	5	248	0.00	30.222 
12:05	22.5	22.5	22.5	66	12.9	2	5	270	0.00	30.222 
12:10	22.4	22.4	22.4	65	12.4	2	4	270	0.00	30.222 
12:15	22.5	22.5	22.5	65	12.5	2	4	248	0.00	30.216 
12:20	22.5	22.5	22.5	65	12.5	3	7	270	0.00	30.216 
12:25	22.7	22.7	22.7	65	12.7	1	6	248	0.00	30.216 
12:30	23.0	23.0	23.0	65	13.0	1	4	248	0.00	30.210 
12:35	22.9	22.9	22.9	63	12.2	2	5	248	0.00	30.210 
12:40	23.0	23.0	23.0	63	12.3	2	3	248	0.00	30.210 
12:45	22.9	22.9	22.9	63	12.2	2	4	248	0.00	30.204 
12:50	22.9	22.9	22.9	63	12.2	2	4	248	0.00	30.204 
12:55	23.0	23.0	23.0	62	11.9	2	5	248	0.00	30.204 
13:00	23.0	23.0	23.0	62	11.9	2	4	270	0.00	30.199 
13:05	23.2	23.2	23.2	62	12.1	2	5	248	0.00	30.199 
13:10	23.2	23.2	23.2	62	12.1	2	5	248	0.00	30.199 
13:15	23.0	23.0	23.0	62	11.9	1	3	270	0.00	30.189 
13:20	23.2	23.2	23.2	63	12.5	1	4	270	0.00	30.189 
13:25	23.2	23.2	23.2	63	12.5	1	4	248	0.00	30.189 
13:30	23.5	23.5	23.5	63	12.8	1	3	248	0.00	30.180 
13:35	23.9	23.9	23.9	64	13.5	1	3	248	0.00	30.180 
13:40	24.4	24.4	24.4	62	13.3	1	5	248	0.00	30.180 
13:45	24.8	24.8	24.8	62	13.7	1	2	248	0.00	30.175 
13:50	25.1	25.1	25.1	60	13.2	1	3	248	0.00	30.175 
13:55	25.3	25.3	25.3	60	13.4	1	3	248	0.00	30.175 
14:00	25.6	25.6	25.6	60	13.7	1	4	248	0.00	30.164 
14:05	25.7	25.7	25.7	59	13.4	1	3	248	0.00	30.164 
14:10	26.0	26.0	26.0	59	13.7	1	5	248	0.00	30.164 
14:15	26.3	26.3	26.3	58	13.6	1	4	248	0.00	30.155 
14:20	26.4	26.4	26.4	58	13.7	1	4	248	0.00	30.155 
14:25	26.4	26.4	26.4	56	12.9	1	4	248	0.00	30.155 
14:30	26.6	26.6	26.6	57	13.4	1	4	248	0.00	30.153 
14:35	27.0	27.0	27.0	59	14.6	0	3	248	0.00	30.153 
14:40	27.0	27.0	27.0	60	15.0	0	3	248	0.00	30.153 
14:45	26.4	26.4	26.4	61	14.8	1	6	112	0.00	30.148 
14:50	26.1	26.1	26.1	60	14.1	1	4	112	0.00	30.148 
14:55	26.3	26.3	26.3	62	15.1	0	2	68	0.00	30.148 
15:00	26.4	26.4	26.4	60	14.4	1	3	68	0.00	30.141 
15:05	26.4	26.4	26.4	60	14.4	1	3	68	0.00	30.141 
15:10	26.4	26.4	26.4	60	14.4	1	4	248	0.00	30.141 
15:15	26.4	26.4	26.4	60	14.4	1	3	248	0.00	30.139 
15:20	26.4	26.4	26.4	61	14.8	0	3	248	0.00	30.139 
15:25	26.1	26.1	26.1	61	14.5	1	3	248	0.00	30.139 
15:30	26.3	26.3	26.3	62	15.1	0	3	292	0.00	30.140 
15:35	26.1	26.1	26.1	61	14.5	0	2	315	0.00	30.140 
15:40	26.3	26.3	26.3	62	15.1	1	3	292	0.00	30.140 
15:45	26.4	26.4	26.4	61	14.8	1	4	248	0.00	30.141 
15:50	26.4	26.4	26.4	61	14.8	1	4	225	0.00	30.141 
15:55	26.3	26.3	26.3	61	14.7	1	4	225	0.00	30.141 
16:00	26.1	26.1	26.1	61	14.5	1	3	225	0.00	30.134 
16:05	26.1	26.1	26.1	61	14.5	1	4	225	0.00	30.134 
16:10	26.0	26.0	26.0	62	14.8	1	4	225	0.00	30.134 
16:15	25.8	25.8	25.8	62	14.6	1	3	248	0.00	30.125 
16:20	25.7	25.7	25.7	62	14.5	1	3	248	0.00	30.125 
16:25	25.4	25.4	25.4	63	14.6	0	2	248	0.00	30.125 
16:30	25.3	25.3	25.3	63	14.5	0	3	248	0.00	30.116 
16:35	25.1	25.1	25.1	64	14.7	0	2	248	0.00	30.116 
16:40	25.0	25.0	25.0	64	14.6	1	4	225	0.00	30.116 
16:45	24.8	24.8	24.8	65	14.7	1	4	90	0.00	30.105 
16:50	24.7	24.7	24.7	65	14.6	1	4	90	0.00	30.105 
16:55	24.5	24.5	24.5	65	14.4	0	2	90	0.00	30.105 
17:00	24.4	24.4	24.4	65	14.3	0	2	90	0.00	30.101 
17:05	24.1	24.1	24.1	66	14.4	0	2	90	0.00	30.101 
17:10	24.1	24.1	24.1	66	14.4	0	1	90	0.00	30.101 
17:15	23.9	23.9	23.9	67	14.6	0	2	90	0.00	30.091 
17:20	23.9	23.9	23.9	67	14.6	0	2	90	0.00	30.091 
17:25	23.9	23.9	23.9	67	14.6	0	2	90	0.00	30.091 
17:30	23.8	23.8	23.8	67	14.5	0	2	90	0.00	30.083 
17:35	23.6	23.6	23.6	68	14.6	0	2	90	0.00	30.083 
17:40	23.5	23.5	23.5	68	14.5	0	2	90	0.00	30.083 
17:45	23.3	23.3	23.3	68	14.3	1	4	112	0.00	30.078 
17:50	23.3	23.3	23.3	68	14.3	1	2	112	0.00	30.078 
17:55	23.2	23.2	23.2	69	14.6	1	3	112	0.00	30.078 
18:00	23.2	23.2	23.2	69	14.6	1	4	135	0.00	30.065 
18:05	23.3	23.3	23.3	68	14.3	1	3	112	0.00	30.065 
18:10	23.3	23.3	23.3	68	14.3	1	3	135	0.00	30.065 
18:15	23.3	23.3	23.3	68	14.3	1	3	112	0.00	30.059 
18:20	23.3	23.3	23.3	68	14.3	1	3	112	0.00	30.059 
18:25	23.3	23.3	23.3	68	14.3	1	3	112	0.00	30.059 
18:30	23.5	23.5	23.5	67	14.2	1	3	112	0.00	30.047 
18:35	23.6	23.6	23.6	67	14.3	1	3	112	0.00	30.047 
18:40	23.6	23.6	23.6	67	14.3	1	2	90	0.00	30.047 
18:45	23.6	23.6	23.6	67	14.3	0	3	90	0.00	30.045 
18:50	23.6	23.6	23.6	66	13.9	2	6	112	0.00	30.045 
18:55	23.8	23.8	23.8	66	14.1	1	3	135	0.00	30.045 
19:00	23.9	23.9	23.9	65	13.9	1	5	90	0.00	30.039 
19:05	24.2	24.2	24.2	65	14.2	1	5	112	0.00	30.039 
19:10	24.4	24.4	24.4	64	14.0	1	4	112	0.00	30.039 
19:15	24.5	24.5	24.5	64	14.1	2	6	112	0.00	30.029 
19:20	24.7	24.7	24.7	63	13.9	2	5	112	0.00	30.029 
19:25	24.8	24.8	24.8	62	13.7	2	4	112	0.00	30.029 
19:30	25.0	25.0	25.0	62	13.8	2	5	112	0.00	30.022 
19:35	25.1	25.1	25.1	61	13.6	2	7	90	0.00	30.022 
19:40	25.3	25.3	25.3	61	13.8	2	5	112	0.00	30.022 
19:45	25.4	25.4	25.4	60	13.5	3	7	112	0.00	30.004 
19:50	25.4	25.4	25.4	60	13.5	1	5	112	0.00	30.004 
19:55	25.4	25.4	25.4	60	13.5	1	3	112	0.00	30.004 
20:00	25.4	25.4	25.4	60	13.5	1	5	112	0.00	30.001 
20:05	25.4	25.4	25.4	60	13.5	1	2	112	0.00	30.001 
20:10	25.3	25.3	25.3	61	13.8	0	2	112	0.00	30.001 
20:15	25.3	25.3	25.3	61	13.8	1	3	112	0.00	29.999 
20:20	25.3	25.3	25.3	61	13.8	0	1	112	0.00	29.999 
20:25	25.3	25.3	25.3	61	13.8	0	3	112	0.00	29.999 
20:30	25.3	25.3	25.3	61	13.8	0	2	112	0.00	29.998 
20:35	25.4	25.4	25.4	61	13.9	0	4	112	0.00	29.998 
20:40	25.6	25.6	25.6	61	14.0	0	1	225	0.00	29.998 
20:45	25.6	25.6	25.6	61	14.0	0	2	225	0.00	29.996 
20:50	25.6	25.6	25.6	61	14.0	0	2	225	0.00	29.996 
20:55	25.7	25.7	25.7	61	14.1	0	1	225	0.00	29.996 
21:00	25.8	25.8	25.8	61	14.2	0	2	225	0.00	29.994 
21:05	26.1	26.1	26.1	61	14.5	0	3	225	0.00	29.994 
21:10	26.4	26.4	26.4	60	14.4	0	4	225	0.00	29.994 
21:15	26.6	26.6	26.6	60	14.6	0	1	248	0.00	29.989 
21:20	26.6	26.6	26.6	60	14.6	0	3	248	0.00	29.989 
21:25	26.9	26.9	26.9	60	14.9	0	3	248	0.00	29.989 
21:30	27.2	27.2	27.2	60	15.2	0	2	248	0.00	29.982 
21:35	27.5	27.5	27.5	60	15.5	0	3	248	0.00	29.982 
21:40	27.9	27.9	27.9	59	15.5	1	4	248	0.00	29.982 
21:45	28.2	28.2	28.2	59	15.7	0	3	248	0.00	29.975 
21:50	28.4	28.4	28.4	59	15.9	0	1	248	0.00	29.975 
21:55	28.5	28.5	28.5	59	16.0	0	3	248	0.00	29.975 
22:00	28.7	28.7	28.7	59	16.2	0	2	248	0.00	29.969 
22:05	28.8	28.8	28.8	59	16.3	0	2	248	0.00	29.969 
22:10	29.1	29.1	29.1	59	16.6	1	3	248	0.00	29.969 
22:15	29.4	29.4	29.4	59	16.9	0	3	248	0.00	29.960 
22:20	29.5	29.5	29.5	59	17.0	1	4	248	0.00	29.960 
22:25	29.8	29.8	29.8	59	17.2	0	3	248	0.00	29.960 
22:30	30.0	30.0	30.0	59	17.4	0	4	248	0.00	29.955 
22:35	30.4	30.4	30.4	58	17.4	1	3	248	0.00	29.955 
22:40	30.9	30.9	30.9	58	17.9	0	4	248	0.00	29.955 
22:45	31.3	31.3	31.3	57	17.9	1	7	248	0.00	29.951 
22:50	31.9	31.9	31.9	57	18.4	1	4	248	0.00	29.951 
22:55	32.5	32.5	32.5	56	18.6	2	7	248	0.00	29.951 
23:00	32.9	32.9	32.9	55	18.5	1	4	248	0.00	29.945 
23:05	33.4	33.4	33.4	55	19.0	2	5	248	0.00	29.945 
23:10	33.8	33.8	33.8	54	18.9	2	7	248	0.00	29.945 
23:15	34.3	34.3	34.3	54	19.4	1	5	248	0.00	29.941 
23:20	34.4	34.4	34.4	54	19.5	2	11	248	0.00	29.941 
23:25	34.7	34.7	34.7	53	19.3	2	7	248	0.00	29.941 
23:30	34.9	34.9	34.9	53	19.5	1	4	248	0.00	29.940 
23:35	35.0	35.0	35.0	52	19.2	3	7	248	0.00	29.940 
23:40	35.0	35.0	35.0	53	19.6	1	5	270	0.00	29.940 
23:45	35.0	35.0	35.0	54	20.1	2	9	248	0.00	29.935 
23:50	35.0	35.0	35.0	54	20.1	1	6	248	0.00	29.935 
23:55	35.2	35.2	35.2	53	19.8	1	4	248	0.00	29.935 

CoCoRaHS
IN-AL-39
A2 Web Hosting
Creative Commons License
GoDaddy
search engine by freefind advanced

loaded 2018-11-17 06:10:52 • last modified 2010-11-18 10:43:29
Privacy PolicyDisclaimer
• wx.awcolley.com is powered by PmWiki v.2002016 •
• all content (unless otherwise noted) © 2018 A W Colley